Time;durP1;ratioP1;P1;durP2;ratioP2;P2;SDS_P1;SDS_P2;PMS_P1;PMS_P2;Temp;Humidity;BMP_temperature;BMP_pressure;BME280_temperature;BME280_humidity;BME280_pressure;Samples;Min_cycle;Max_cycle;Signal;HPM_P1;HPM_P2
2023/09/04 00:01:37;;;;;;;1.70;1.60;;;20.50;67.80;;;;;;5042336;28;20036;-78
2023/09/04 00:04:03;;;;;;;1.67;1.48;;;20.50;67.80;;;;;;5058635;28;20087;-79
2023/09/04 00:06:30;;;;;;;1.77;1.50;;;20.50;67.80;;;;;;5042236;28;20037;-78
2023/09/04 00:08:59;;;;;;;2.13;1.77;;;20.40;67.80;;;;;;5058635;28;20033;-79
2023/09/04 00:11:27;;;;;;;2.13;1.60;;;20.40;67.80;;;;;;5058924;28;20028;-78
2023/09/04 00:13:53;;;;;;;1.92;1.65;;;20.40;67.90;;;;;;5042050;28;20036;-78
2023/09/04 00:16:19;;;;;;;2.08;1.60;;;20.30;67.80;;;;;;5058764;28;20024;-79
2023/09/04 00:18:45;;;;;;;2.00;1.70;;;20.30;67.90;;;;;;5058887;28;20040;-78
2023/09/04 00:21:10;;;;;;;1.90;1.70;;;20.30;67.90;;;;;;5059207;28;20033;-79
2023/09/04 00:23:36;;;;;;;2.47;1.98;;;20.30;67.90;;;;;;5025177;28;20059;-77
2023/09/04 00:26:02;;;;;;;2.00;1.77;;;20.30;67.90;;;;;;5058728;28;20033;-78
2023/09/04 00:28:28;;;;;;;1.90;1.70;;;20.20;67.90;;;;;;5059333;28;20079;-78
2023/09/04 00:30:54;;;;;;;2.30;1.75;;;20.20;67.90;;;;;;5058314;28;20039;-79
2023/09/04 00:33:19;;;;;;;2.17;1.95;;;20.20;68.00;;;;;;5058808;28;20086;-78
2023/09/04 00:35:45;;;;;;;2.25;1.80;;;20.10;68.00;;;;;;5058085;28;20029;-79
2023/09/04 00:38:11;;;;;;;1.75;1.65;;;20.10;68.00;;;;;;5038980;28;20400;-78
2023/09/04 00:40:37;;;;;;;2.58;1.70;;;20.10;68.00;;;;;;5055398;28;20059;-79
2023/09/04 00:43:03;;;;;;;1.75;1.60;;;20.00;68.00;;;;;;5055108;28;20036;-78
2023/09/04 00:45:29;;;;;;;2.13;1.75;;;20.00;68.10;;;;;;5038434;28;20139;-78
2023/09/04 00:47:55;;;;;;;2.40;1.95;;;20.00;68.10;;;;;;5021944;28;20565;-79
2023/09/04 00:50:23;;;;;;;2.22;1.83;;;20.00;68.20;;;;;;5038538;28;20366;-79
2023/09/04 00:52:51;;;;;;;2.35;1.70;;;19.90;68.10;;;;;;5056665;28;20057;-79
2023/09/04 00:55:18;;;;;;;2.38;1.88;;;19.90;68.10;;;;;;5054819;28;20032;-78
2023/09/04 00:57:44;;;;;;;2.38;1.83;;;19.90;68.20;;;;;;5038348;28;20025;-78
2023/09/04 01:00:14;;;;;;;2.17;1.55;;;19.80;68.20;;;;;;5038835;28;20124;-79
2023/09/04 01:02:40;;;;;;;2.55;1.70;;;19.80;68.20;;;;;;5021992;28;20021;-78
2023/09/04 01:05:07;;;;;;;2.42;1.90;;;19.80;68.20;;;;;;5054457;28;20041;-79
2023/09/04 01:07:33;;;;;;;3.25;2.10;;;19.70;68.20;;;;;;5038260;28;20380;-79
2023/09/04 01:10:00;;;;;;;2.60;2.00;;;19.70;68.20;;;;;;5055735;28;20033;-79
2023/09/04 01:12:53;;;;;;;2.38;1.80;;;19.70;68.20;;;;;;5021813;28;20033;-78
2023/09/04 01:15:19;;;;;;;1.88;1.70;;;19.70;68.40;;;;;;5038063;28;20038;-78
2023/09/04 01:17:47;;;;;;;1.70;1.60;;;19.60;68.30;;;;;;5054679;28;20032;-78
2023/09/04 01:20:33;;;;;;;2.33;2.03;;;19.60;68.30;;;;;;5055054;28;20032;-78
2023/09/04 01:22:59;;;;;;;1.77;1.60;;;19.60;68.40;;;;;;5053595;28;20135;-78
2023/09/04 01:25:52;;;;;;;3.60;2.00;;;19.50;68.30;;;;;;5038494;28;20041;-78
2023/09/04 01:28:28;;;;;;;2.22;1.90;;;19.50;68.40;;;;;;5049716;28;20102;-78
2023/09/04 01:31:04;;;;;;;2.33;1.92;;;19.50;68.40;;;;;;5053738;28;20029;-78
2023/09/04 01:33:38;;;;;;;2.50;2.00;;;19.50;68.50;;;;;;5054215;28;20033;-79
2023/09/04 01:36:06;;;;;;;2.60;1.75;;;19.40;68.50;;;;;;5054031;28;20078;-78
2023/09/04 01:38:35;;;;;;;1.98;1.67;;;19.40;68.50;;;;;;5037487;28;20033;-78
2023/09/04 01:41:05;;;;;;;2.72;2.13;;;19.40;68.50;;;;;;5021226;28;20028;-78
2023/09/04 01:43:32;;;;;;;2.08;1.73;;;19.40;68.50;;;;;;5037267;28;20033;-78
2023/09/04 01:45:58;;;;;;;2.70;1.92;;;19.40;68.50;;;;;;5055094;28;20037;-78
2023/09/04 01:48:23;;;;;;;2.40;1.90;;;19.30;68.50;;;;;;5053640;28;20029;-78
2023/09/04 01:50:49;;;;;;;2.42;2.10;;;19.30;68.60;;;;;;5020370;28;20090;-78
2023/09/04 01:53:16;;;;;;;2.30;2.00;;;19.30;68.60;;;;;;5020350;28;20037;-78
2023/09/04 01:55:42;;;;;;;2.45;2.08;;;19.30;68.70;;;;;;5021053;28;20064;-78
2023/09/04 01:58:08;;;;;;;2.28;1.90;;;19.20;68.60;;;;;;5037810;28;20397;-78
2023/09/04 02:00:33;;;;;;;2.45;1.90;;;19.20;68.70;;;;;;5053927;28;20033;-79
2023/09/04 02:02:59;;;;;;;2.35;1.92;;;19.20;68.70;;;;;;5053226;28;20029;-79
2023/09/04 02:05:25;;;;;;;2.90;2.15;;;19.20;68.80;;;;;;5020433;28;20033;-79
2023/09/04 02:07:51;;;;;;;2.38;1.88;;;19.10;68.80;;;;;;5020420;28;20496;-79
2023/09/04 02:10:16;;;;;;;2.45;1.92;;;19.20;68.80;;;;;;5037132;28;20029;-79
2023/09/04 02:12:42;;;;;;;2.70;2.05;;;19.10;68.80;;;;;;5053598;28;20041;-78
2023/09/04 02:15:08;;;;;;;2.35;1.90;;;19.10;68.80;;;;;;5036671;28;20492;-78
2023/09/04 02:17:34;;;;;;;2.13;1.92;;;19.10;68.90;;;;;;5020117;28;20037;-78
2023/09/04 02:20:00;;;;;;;2.47;2.13;;;19.10;68.90;;;;;;5036634;28;20040;-78
2023/09/04 02:22:26;;;;;;;2.13;1.90;;;19.10;68.90;;;;;;5036719;28;20119;-79
2023/09/04 02:24:52;;;;;;;1.90;1.70;;;19.00;68.90;;;;;;5053013;28;20033;-79
2023/09/04 02:27:18;;;;;;;2.10;1.80;;;19.00;68.90;;;;;;5053424;28;20040;-78
2023/09/04 02:29:44;;;;;;;2.15;1.95;;;19.00;69.00;;;;;;5036581;28;20032;-78
2023/09/04 02:32:09;;;;;;;2.25;1.98;;;19.00;69.00;;;;;;5053057;28;20033;-79
2023/09/04 02:34:35;;;;;;;2.15;1.90;;;19.00;69.00;;;;;;5035942;28;20056;-78
2023/09/04 02:37:02;;;;;;;3.08;2.38;;;18.90;69.00;;;;;;5036377;28;20044;-79
2023/09/04 02:39:27;;;;;;;2.85;2.20;;;18.90;69.10;;;;;;5019935;28;20029;-79
2023/09/04 02:41:53;;;;;;;2.22;2.03;;;18.90;69.10;;;;;;5053152;28;20466;-78
2023/09/04 02:44:19;;;;;;;2.53;2.20;;;18.90;69.10;;;;;;5052821;28;20052;-78
2023/09/04 02:46:44;;;;;;;2.25;2.05;;;18.90;69.10;;;;;;5036162;28;20477;-79
2023/09/04 02:49:10;;;;;;;2.33;2.13;;;18.80;69.10;;;;;;5035877;28;20115;-79
2023/09/04 02:51:36;;;;;;;2.90;2.20;;;18.90;69.20;;;;;;5052743;28;20412;-78
2023/09/04 02:54:01;;;;;;;2.55;2.10;;;18.80;69.20;;;;;;5052565;28;20029;-79
2023/09/04 02:56:27;;;;;;;2.80;2.10;;;18.80;69.20;;;;;;5036179;28;20433;-79
2023/09/04 02:58:53;;;;;;;3.30;2.55;;;18.80;69.20;;;;;;5054357;28;20040;-78
2023/09/04 03:01:18;;;;;;;2.67;2.20;;;18.80;69.30;;;;;;5052234;28;20053;-78
2023/09/04 03:03:46;;;;;;;2.72;2.45;;;18.70;69.20;;;;;;5035740;28;20500;-78
2023/09/04 03:06:12;;;;;;;3.00;2.30;;;18.70;69.30;;;;;;5052209;28;20076;-78
2023/09/04 03:08:38;;;;;;;2.65;2.13;;;18.70;69.30;;;;;;5035913;28;20079;-78
2023/09/04 03:11:09;;;;;;;3.50;2.65;;;18.70;69.30;;;;;;5053655;28;20033;-79
2023/09/04 03:13:36;;;;;;;3.03;2.35;;;18.70;69.30;;;;;;5035749;28;20032;-78
2023/09/04 03:16:03;;;;;;;2.95;2.30;;;18.60;69.30;;;;;;5052402;28;20466;-78
2023/09/04 03:18:29;;;;;;;2.97;2.35;;;18.60;69.30;;;;;;5035689;28;20040;-78
2023/09/04 03:20:56;;;;;;;3.85;2.38;;;18.60;69.40;;;;;;5019495;28;20033;-78
2023/09/04 03:23:21;;;;;;;2.88;2.20;;;18.60;69.40;;;;;;5035816;28;20126;-78
2023/09/04 03:25:47;;;;;;;2.47;2.10;;;18.60;69.40;;;;;;5035700;28;20036;-78
2023/09/04 03:28:13;;;;;;;2.40;2.20;;;18.50;69.40;;;;;;5035875;28;20037;-79
2023/09/04 03:30:39;;;;;;;3.22;2.42;;;18.50;69.30;;;;;;5053743;28;20041;-79
2023/09/04 03:33:07;;;;;;;3.25;2.38;;;18.50;69.40;;;;;;5035618;28;20029;-79
2023/09/04 03:35:33;;;;;;;3.60;2.70;;;18.50;69.40;;;;;;5035017;28;20464;-78
2023/09/04 03:37:59;;;;;;;3.05;2.40;;;18.50;69.40;;;;;;5035533;28;20040;-79
2023/09/04 03:40:26;;;;;;;3.28;2.50;;;18.40;69.40;;;;;;5052602;28;20473;-78
2023/09/04 03:42:53;;;;;;;2.92;2.13;;;18.40;69.50;;;;;;5068709;28;20033;-78
2023/09/04 03:45:19;;;;;;;2.97;2.42;;;18.40;69.50;;;;;;5035581;28;20112;-78
2023/09/04 03:47:46;;;;;;;2.97;2.55;;;18.40;69.50;;;;;;5019183;28;20537;-78
2023/09/04 03:50:12;;;;;;;2.70;2.40;;;18.40;69.60;;;;;;5052293;28;20120;-78
2023/09/04 03:52:39;;;;;;;3.05;2.45;;;18.30;69.60;;;;;;5051925;28;20029;-79
2023/09/04 03:55:07;;;;;;;4.00;2.58;;;18.30;69.50;;;;;;5035367;28;20068;-78
2023/09/04 03:57:34;;;;;;;3.70;2.30;;;18.30;70.20;;;;;;5019375;28;20033;-78
2023/09/04 04:00:00;;;;;;;3.88;2.63;;;18.30;69.60;;;;;;5035562;28;20040;-78
2023/09/04 04:02:26;;;;;;;3.55;2.80;;;18.30;69.60;;;;;;5035397;28;20025;-78
2023/09/04 04:04:52;;;;;;;3.03;2.60;;;18.30;69.60;;;;;;5035425;28;20037;-78
2023/09/04 04:07:18;;;;;;;3.38;2.50;;;18.30;69.70;;;;;;5052145;28;20025;-78
2023/09/04 04:09:46;;;;;;;4.03;2.92;;;18.20;69.70;;;;;;5019093;28;20131;-78
2023/09/04 04:12:14;;;;;;;3.00;2.35;;;18.20;69.70;;;;;;5036003;28;20060;-79
2023/09/04 04:14:40;;;;;;;3.03;2.35;;;18.20;69.70;;;;;;5056232;28;20061;-78
2023/09/04 04:17:08;;;;;;;3.30;2.70;;;18.20;69.70;;;;;;5055851;28;20106;-79
2023/09/04 04:19:34;;;;;;;4.05;2.95;;;18.20;69.70;;;;;;5056214;28;20032;-78
2023/09/04 04:22:00;;;;;;;2.67;2.22;;;18.10;69.70;;;;;;5055720;28;20071;-78
2023/09/04 04:24:27;;;;;;;3.60;2.78;;;18.10;69.70;;;;;;5038505;28;20110;-78
2023/09/04 04:26:53;;;;;;;3.25;2.58;;;18.10;69.80;;;;;;5039550;28;20049;-78
2023/09/04 04:29:20;;;;;;;3.70;2.97;;;18.10;69.80;;;;;;5039701;28;20025;-79
2023/09/04 04:31:46;;;;;;;4.10;3.10;;;18.10;69.80;;;;;;5022811;28;20033;-79
2023/09/04 04:34:12;;;;;;;4.47;3.38;;;18.10;69.80;;;;;;5039599;28;20056;-78
2023/09/04 04:36:38;;;;;;;3.83;3.00;;;18.10;69.90;;;;;;5038583;28;20462;-79
2023/09/04 04:39:03;;;;;;;4.15;3.15;;;18.00;69.80;;;;;;5038829;28;20037;-78
2023/09/04 04:41:31;;;;;;;3.63;2.80;;;18.00;69.80;;;;;;5038802;28;20035;-78
2023/09/04 04:43:56;;;;;;;4.13;3.30;;;18.00;69.90;;;;;;5054965;28;20025;-79
2023/09/04 04:46:22;;;;;;;3.22;2.70;;;18.10;70.00;;;;;;5021939;28;20037;-79
2023/09/04 04:48:49;;;;;;;3.63;2.83;;;18.00;70.00;;;;;;5038358;28;20037;-79
2023/09/04 04:51:15;;;;;;;3.53;2.78;;;18.00;70.00;;;;;;5038352;28;20037;-78
2023/09/04 04:53:41;;;;;;;3.45;2.75;;;18.00;70.00;;;;;;5055137;28;20388;-78
2023/09/04 04:56:08;;;;;;;4.20;3.10;;;18.00;70.00;;;;;;5022149;28;20134;-78
2023/09/04 04:58:33;;;;;;;3.90;3.00;;;18.00;70.10;;;;;;5038451;28;20060;-78
2023/09/04 05:00:59;;;;;;;3.58;2.80;;;18.00;70.10;;;;;;5038243;28;20057;-78
2023/09/04 05:03:25;;;;;;;3.28;2.70;;;17.90;70.10;;;;;;5038871;28;20041;-78
2023/09/04 05:05:51;;;;;;;3.83;2.92;;;17.90;70.00;;;;;;5021659;28;20035;-78
2023/09/04 05:08:17;;;;;;;4.13;3.25;;;17.90;70.10;;;;;;5021604;28;20413;-78
2023/09/04 05:10:43;;;;;;;4.05;3.10;;;17.90;70.10;;;;;;5021714;28;20037;-78
2023/09/04 05:13:09;;;;;;;3.67;3.03;;;17.90;70.10;;;;;;5037654;28;20039;-79
2023/09/04 05:15:35;;;;;;;4.22;3.25;;;17.90;70.10;;;;;;5038347;28;20128;-78
2023/09/04 05:18:01;;;;;;;3.88;3.10;;;17.90;70.20;;;;;;5021318;28;20541;-78
2023/09/04 05:20:27;;;;;;;4.10;3.05;;;17.90;70.10;;;;;;5054396;28;20033;-78
2023/09/04 05:22:52;;;;;;;3.95;2.90;;;17.90;70.20;;;;;;5053944;28;20084;-79
2023/09/04 05:25:18;;;;;;;4.15;3.15;;;17.90;70.20;;;;;;5054271;28;20379;-78
2023/09/04 05:27:45;;;;;;;4.18;3.22;;;17.90;70.20;;;;;;5054582;28;20474;-78
2023/09/04 05:30:11;;;;;;;3.88;3.22;;;17.80;70.20;;;;;;5037338;28;20125;-78
2023/09/04 05:32:37;;;;;;;3.58;2.97;;;17.90;70.20;;;;;;5054726;28;20056;-79
2023/09/04 05:35:02;;;;;;;4.45;3.20;;;17.80;70.20;;;;;;5037335;28;20522;-79
2023/09/04 05:37:28;;;;;;;3.70;2.90;;;17.80;70.20;;;;;;5037252;28;20401;-79
2023/09/04 05:39:54;;;;;;;4.15;3.28;;;17.80;70.30;;;;;;5053785;28;20527;-78
2023/09/04 05:42:20;;;;;;;4.15;3.22;;;17.80;70.30;;;;;;5054324;28;20037;-78
2023/09/04 05:44:45;;;;;;;3.75;3.22;;;17.80;70.30;;;;;;5055683;28;20036;-78
2023/09/04 05:47:11;;;;;;;4.03;3.20;;;17.80;70.30;;;;;;5037139;28;20037;-79
2023/09/04 05:49:37;;;;;;;4.53;3.30;;;17.80;70.30;;;;;;5037335;28;20116;-78
2023/09/04 05:52:02;;;;;;;4.05;3.10;;;17.80;70.30;;;;;;5053633;28;20032;-78
2023/09/04 05:54:28;;;;;;;3.80;3.13;;;17.80;70.30;;;;;;5053505;28;20083;-79
2023/09/04 05:56:54;;;;;;;3.95;3.10;;;17.80;70.40;;;;;;5037373;28;20524;-78
2023/09/04 05:59:20;;;;;;;4.00;3.38;;;17.80;70.30;;;;;;5037215;28;20063;-78
2023/09/04 06:01:45;;;;;;;3.55;2.88;;;17.80;70.40;;;;;;5037042;28;20033;-79
2023/09/04 06:04:11;;;;;;;3.90;3.00;;;17.80;70.40;;;;;;5036633;28;20389;-79
2023/09/04 06:06:38;;;;;;;4.47;3.13;;;17.80;70.40;;;;;;5036913;28;20029;-79
2023/09/04 06:09:06;;;;;;;3.90;2.97;;;17.80;70.40;;;;;;5037167;28;20496;-79
2023/09/04 06:11:32;;;;;;;3.40;2.67;;;17.80;70.40;;;;;;5053133;28;20029;-78
2023/09/04 06:13:57;;;;;;;4.45;3.08;;;17.80;70.40;;;;;;5036774;28;20086;-78
2023/09/04 06:16:23;;;;;;;4.38;3.13;;;17.80;70.40;;;;;;5036711;28;20036;-78
2023/09/04 06:18:49;;;;;;;4.80;3.25;;;17.80;70.50;;;;;;5053303;28;20489;-79
2023/09/04 06:21:15;;;;;;;3.90;3.20;;;17.80;70.50;;;;;;5053249;28;20375;-79
2023/09/04 06:23:40;;;;;;;4.10;3.08;;;17.80;70.50;;;;;;5036550;28;20175;-78
2023/09/04 06:26:06;;;;;;;4.47;3.45;;;17.80;70.50;;;;;;5052984;28;20112;-78
2023/09/04 06:28:32;;;;;;;3.83;3.00;;;17.80;70.40;;;;;;5036510;28;20378;-80
2023/09/04 06:30:58;;;;;;;3.90;3.17;;;17.80;70.50;;;;;;5054485;28;20072;-78
2023/09/04 06:33:29;;;;;;;4.22;3.40;;;17.80;70.50;;;;;;5036688;28;20033;-78
2023/09/04 06:35:54;;;;;;;3.92;3.03;;;17.80;70.50;;;;;;5052196;28;20056;-78
2023/09/04 06:38:20;;;;;;;4.70;2.97;;;17.80;70.50;;;;;;5053256;28;20033;-77
2023/09/04 06:40:46;;;;;;;3.58;3.00;;;17.80;70.50;;;;;;5036618;28;20029;-78
2023/09/04 06:43:11;;;;;;;4.38;3.20;;;17.80;70.50;;;;;;5035992;28;20045;-78
2023/09/04 06:45:37;;;;;;;4.18;3.20;;;17.80;70.50;;;;;;5036259;28;20543;-77
2023/09/04 06:48:05;;;;;;;3.83;3.03;;;17.90;70.60;;;;;;5020047;28;20401;-78
2023/09/04 06:50:30;;;;;;;4.18;3.30;;;17.90;70.60;;;;;;5036165;28;20112;-78
2023/09/04 06:52:56;;;;;;;3.92;3.15;;;17.80;70.50;;;;;;5052784;28;20100;-78
2023/09/04 06:55:22;;;;;;;3.15;2.65;;;17.90;70.60;;;;;;5019957;28;20029;-78
2023/09/04 06:57:47;;;;;;;4.28;3.15;;;17.80;70.60;;;;;;5035684;28;20095;-78
2023/09/04 07:00:13;;;;;;;4.25;3.20;;;17.90;70.60;;;;;;5035831;28;20033;-79
2023/09/04 07:02:39;;;;;;;3.83;3.10;;;17.90;70.60;;;;;;5019475;28;20405;-78
2023/09/04 07:05:08;;;;;;;3.92;3.13;;;17.90;70.60;;;;;;5052223;28;20036;-78
2023/09/04 07:07:36;;;;;;;4.20;3.20;;;17.90;70.70;;;;;;5052713;28;20466;-77
2023/09/04 07:10:04;;;;;;;4.05;3.20;;;17.90;70.60;;;;;;5036067;28;20433;-78
2023/09/04 07:12:33;;;;;;;3.50;3.03;;;17.90;70.70;;;;;;5053646;28;20036;-78
2023/09/04 07:14:59;;;;;;;4.28;3.30;;;18.00;70.70;;;;;;5052179;28;20033;-78
2023/09/04 07:17:25;;;;;;;4.38;3.13;;;18.00;70.70;;;;;;5035830;28;20044;-78
2023/09/04 07:19:51;;;;;;;3.47;2.90;;;17.90;70.60;;;;;;5035784;28;20033;-78
2023/09/04 07:22:17;;;;;;;3.75;2.97;;;18.00;70.70;;;;;;5052118;28;20493;-77
2023/09/04 07:24:42;;;;;;;3.67;2.85;;;18.00;70.70;;;;;;5035437;28;20041;-77
2023/09/04 07:27:08;;;;;;;3.83;2.92;;;18.00;70.70;;;;;;5036130;28;20111;-77
2023/09/04 07:29:34;;;;;;;4.40;3.20;;;18.00;70.70;;;;;;5035539;28;20036;-78
2023/09/04 07:32:01;;;;;;;3.80;3.13;;;18.00;70.70;;;;;;5052661;28;20029;-77
2023/09/04 07:34:26;;;;;;;3.35;2.72;;;18.00;70.70;;;;;;5019135;28;20076;-77
2023/09/04 07:36:52;;;;;;;5.40;3.80;;;18.10;70.80;;;;;;5036110;28;20047;-78
2023/09/04 07:39:18;;;;;;;4.38;3.30;;;18.10;70.70;;;;;;5035375;28;20076;-78
2023/09/04 07:41:44;;;;;;;3.42;3.03;;;18.10;70.80;;;;;;5035688;28;20033;-78
2023/09/04 07:44:09;;;;;;;3.83;3.10;;;18.10;70.70;;;;;;5019356;28;20064;-77
2023/09/04 07:46:35;;;;;;;4.32;3.40;;;18.10;70.70;;;;;;5036788;28;20500;-77
2023/09/04 07:49:01;;;;;;;4.28;2.97;;;18.10;70.70;;;;;;5039842;28;20059;-78
2023/09/04 07:51:26;;;;;;;4.00;3.35;;;18.20;70.80;;;;;;5039743;28;20033;-78
2023/09/04 07:53:52;;;;;;;4.25;2.95;;;18.20;70.70;;;;;;5057314;28;20039;-78
2023/09/04 07:56:19;;;;;;;3.47;2.95;;;18.20;70.70;;;;;;5056986;28;20029;-78
2023/09/04 07:58:45;;;;;;;3.90;3.08;;;18.20;70.70;;;;;;5023736;28;20029;-78
2023/09/04 08:01:13;;;;;;;3.92;3.05;;;18.20;71.30;;;;;;5039021;28;20449;-78
2023/09/04 08:03:40;;;;;;;3.92;3.03;;;18.30;70.70;;;;;;5039526;28;20093;-79
2023/09/04 08:06:06;;;;;;;4.95;3.42;;;18.30;70.70;;;;;;5039978;28;20033;-77
2023/09/04 08:08:31;;;;;;;4.30;3.20;;;18.30;70.70;;;;;;5039060;28;20044;-78
2023/09/04 08:10:57;;;;;;;4.50;3.33;;;18.30;70.70;;;;;;5039072;28;20032;-78
2023/09/04 08:13:23;;;;;;;3.78;3.13;;;18.40;70.70;;;;;;5039065;28;20040;-77
2023/09/04 08:15:49;;;;;;;3.35;2.97;;;18.40;70.80;;;;;;5039365;28;20363;-79
2023/09/04 08:18:14;;;;;;;5.95;3.63;;;18.40;70.70;;;;;;5055407;28;20416;-77
2023/09/04 08:20:40;;;;;;;3.58;2.95;;;18.40;70.70;;;;;;5022578;28;20033;-78
2023/09/04 08:23:07;;;;;;;3.70;2.80;;;18.40;70.70;;;;;;5038891;28;20029;-78
2023/09/04 08:25:33;;;;;;;4.25;3.30;;;18.40;70.70;;;;;;5055364;28;20033;-77
2023/09/04 08:27:59;;;;;;;3.97;3.13;;;18.50;70.70;;;;;;5055316;28;20029;-78
2023/09/04 08:30:25;;;;;;;4.00;3.17;;;18.50;70.70;;;;;;5056589;28;20029;-77
2023/09/04 08:32:51;;;;;;;4.40;3.17;;;18.60;70.70;;;;;;5054991;28;20039;-78
2023/09/04 08:35:20;;;;;;;4.35;3.70;;;18.60;70.70;;;;;;5055233;28;20087;-78
2023/09/04 08:37:46;;;;;;;3.83;3.10;;;18.60;70.60;;;;;;5038542;28;20029;-78
2023/09/04 08:40:13;;;;;;;4.70;3.72;;;18.70;70.60;;;;;;5055028;28;20029;-78
2023/09/04 08:42:39;;;;;;;4.43;3.30;;;18.70;70.50;;;;;;5055443;28;20031;-77
2023/09/04 08:45:09;;;;;;;4.50;3.20;;;18.80;70.40;;;;;;5055581;28;20379;-77
2023/09/04 08:47:39;;;;;;;4.07;3.00;;;18.80;70.30;;;;;;5054845;28;20463;-78
2023/09/04 08:50:05;;;;;;;4.18;3.03;;;18.90;70.20;;;;;;5038633;28;20035;-77
2023/09/04 08:52:31;;;;;;;4.20;3.10;;;19.00;70.10;;;;;;5038422;28;20033;-78
2023/09/04 08:54:58;;;;;;;4.70;3.15;;;19.00;70.00;;;;;;5054808;28;20044;-78
2023/09/04 08:57:25;;;;;;;3.95;3.22;;;19.10;69.90;;;;;;5038137;28;20033;-77
2023/09/04 08:59:50;;;;;;;3.20;2.67;;;19.20;69.80;;;;;;5055129;28;20128;-78
2023/09/04 09:02:18;;;;;;;3.38;2.55;;;19.20;69.60;;;;;;5021942;28;20529;-78
2023/09/04 09:04:43;;;;;;;4.15;2.90;;;19.40;69.60;;;;;;5054719;28;20037;-78
2023/09/04 09:07:11;;;;;;;3.45;2.80;;;19.40;69.50;;;;;;5021618;28;20393;-78
2023/09/04 09:09:39;;;;;;;3.42;2.85;;;19.50;69.40;;;;;;5038034;28;20021;-78
2023/09/04 09:12:05;;;;;;;3.38;2.75;;;19.60;69.40;;;;;;5038206;28;20052;-77
2023/09/04 09:14:31;;;;;;;3.65;2.75;;;19.70;69.20;;;;;;5021605;28;20090;-78
2023/09/04 09:17:04;;;;;;;3.50;2.53;;;19.80;69.20;;;;;;5038103;28;20453;-78
2023/09/04 09:19:38;;;;;;;3.30;2.50;;;19.90;69.80;;;;;;5038014;28;20044;-77
2023/09/04 09:22:14;;;;;;;3.13;2.47;;;20.00;69.70;;;;;;5037755;28;20025;-77
2023/09/04 09:24:59;;;;;;;3.95;3.00;;;20.00;68.90;;;;;;5054883;28;20496;-78
2023/09/04 09:27:28;;;;;;;3.55;2.20;;;20.20;68.90;;;;;;5054726;28;20079;-77
2023/09/04 09:30:00;;;;;;;3.25;2.50;;;20.30;68.70;;;;;;5037962;28;20033;-77
2023/09/04 09:32:31;;;;;;;2.75;2.13;;;20.40;68.70;;;;;;5055191;28;20033;-78
2023/09/04 09:35:00;;;;;;;3.30;2.30;;;20.40;68.50;;;;;;5054044;28;20053;-77
2023/09/04 09:37:30;;;;;;;4.28;2.83;;;20.50;68.50;;;;;;5055180;28;20063;-78
2023/09/04 09:39:56;;;;;;;2.67;2.15;;;20.60;68.40;;;;;;5037620;28;20036;-77
2023/09/04 09:42:23;;;;;;;3.55;2.65;;;20.70;68.40;;;;;;5053853;28;20033;-77
2023/09/04 09:44:51;;;;;;;3.83;2.53;;;20.80;68.30;;;;;;5037919;28;20090;-78
2023/09/04 09:47:17;;;;;;;4.07;2.72;;;20.90;68.20;;;;;;5055110;28;20036;-78
2023/09/04 09:49:43;;;;;;;3.47;2.22;;;21.00;68.20;;;;;;5053942;28;20600;-78
2023/09/04 09:52:10;;;;;;;3.38;2.40;;;21.10;68.10;;;;;;5054048;28;20029;-78
2023/09/04 09:54:41;;;;;;;2.80;2.10;;;21.30;68.10;;;;;;5037208;28;20107;-78
2023/09/04 09:57:08;;;;;;;3.35;2.33;;;21.30;68.10;;;;;;5053533;28;20164;-78
2023/09/04 09:59:36;;;;;;;3.08;2.40;;;21.40;68.00;;;;;;5054361;28;20176;-78
2023/09/04 10:02:06;;;;;;;3.67;2.53;;;21.50;68.00;;;;;;5053348;28;20057;-78
2023/09/04 10:04:32;;;;;;;3.38;2.35;;;21.60;68.00;;;;;;5053745;28;20044;-78
2023/09/04 10:07:04;;;;;;;3.17;2.17;;;21.70;68.00;;;;;;5036881;28;20037;-78
2023/09/04 10:10:03;;;;;;;2.95;2.38;;;21.90;68.00;;;;;;5036361;28;20052;-78
2023/09/04 10:13:04;;;;;;;2.92;2.28;;;22.00;68.00;;;;;;5033763;28;20056;-78
2023/09/04 10:15:34;;;;;;;2.78;2.15;;;22.10;67.90;;;;;;5031009;28;20048;-78
2023/09/04 10:18:16;;;;;;;3.15;2.40;;;22.20;67.80;;;;;;5054358;28;20033;-78
2023/09/04 10:20:41;;;;;;;3.97;2.22;;;22.30;68.00;;;;;;5054239;28;20029;-79
2023/09/04 10:23:11;;;;;;;3.67;2.30;;;22.40;67.90;;;;;;5054120;28;20044;-78
2023/09/04 10:25:49;;;;;;;2.33;1.88;;;22.50;68.00;;;;;;5052998;28;20040;-78
2023/09/04 10:28:27;;;;;;;2.22;1.90;;;22.60;68.10;;;;;;5054754;28;20082;-78
2023/09/04 10:30:57;;;;;;;2.60;1.88;;;22.80;68.10;;;;;;5053437;28;20033;-78
2023/09/04 10:33:24;;;;;;;2.20;1.95;;;22.80;68.00;;;;;;5053761;28;20123;-78
2023/09/04 10:35:50;;;;;;;2.42;2.00;;;23.00;68.10;;;;;;5053059;28;20501;-78
2023/09/04 10:38:16;;;;;;;2.75;2.10;;;23.10;68.10;;;;;;5019807;28;20029;-78
2023/09/04 10:40:42;;;;;;;2.80;2.30;;;23.10;68.00;;;;;;5053268;28;20037;-78
2023/09/04 10:43:09;;;;;;;3.08;2.35;;;23.30;68.10;;;;;;5036153;28;20378;-79
2023/09/04 10:45:35;;;;;;;3.67;2.00;;;23.30;68.00;;;;;;5053140;28;20043;-78
2023/09/04 10:48:01;;;;;;;2.53;2.00;;;23.40;68.00;;;;;;5053010;28;20127;-79
2023/09/04 10:50:38;;;;;;;2.80;2.03;;;23.50;68.00;;;;;;5036186;28;20087;-78
2023/09/04 10:53:08;;;;;;;2.75;2.10;;;23.60;68.20;;;;;;5053026;28;20041;-79
2023/09/04 10:55:36;;;;;;;2.50;1.95;;;23.70;68.20;;;;;;5036080;28;20036;-80
2023/09/04 10:58:08;;;;;;;2.47;1.90;;;23.70;68.20;;;;;;5035975;28;20025;-78
2023/09/04 11:00:36;;;;;;;2.80;1.88;;;23.80;68.40;;;;;;5053528;28;20387;-78
2023/09/04 11:03:23;;;;;;;2.42;1.95;;;23.90;68.40;;;;;;5052558;28;20029;-79
2023/09/04 11:06:20;;;;;;;2.90;2.05;;;24.00;68.80;;;;;;5053472;28;20037;-79
2023/09/04 11:08:51;;;;;;;2.53;1.90;;;24.00;68.70;;;;;;5044587;28;20045;-78
2023/09/04 11:11:23;;;;;;;2.70;1.90;;;24.10;68.90;;;;;;5052216;28;20028;-79
2023/09/04 11:13:56;;;;;;;1.95;1.75;;;24.10;69.00;;;;;;5052673;28;20029;-79
2023/09/04 11:16:24;;;;;;;2.17;1.80;;;24.20;69.30;;;;;;5036164;28;20045;-78
2023/09/04 11:19:13;;;;;;;2.47;1.90;;;24.20;69.30;;;;;;5019436;28;20469;-79
2023/09/04 11:21:42;;;;;;;2.67;2.10;;;24.30;69.60;;;;;;5035449;28;20025;-79
2023/09/04 11:24:08;;;;;;;2.30;1.98;;;24.30;69.70;;;;;;5053189;28;20470;-78
2023/09/04 11:26:35;;;;;;;2.50;2.05;;;24.40;69.80;;;;;;5052246;28;20079;-78
2023/09/04 11:29:02;;;;;;;2.88;1.83;;;24.40;70.00;;;;;;5035646;28;20059;-78
2023/09/04 11:31:30;;;;;;;2.15;1.95;;;24.40;70.20;;;;;;5052176;28;20033;-78
2023/09/04 11:33:56;;;;;;;2.13;1.85;;;24.50;70.30;;;;;;5035771;28;20069;-79
2023/09/04 11:36:23;;;;;;;2.75;2.10;;;24.50;70.50;;;;;;5051653;28;20123;-78
2023/09/04 11:39:14;;;;;;;2.22;1.95;;;24.60;70.70;;;;;;5035848;28;20032;-78
2023/09/04 11:41:40;;;;;;;2.75;2.15;;;24.60;70.80;;;;;;5037253;28;20029;-78
2023/09/04 11:44:07;;;;;;;3.33;2.28;;;24.60;70.70;;;;;;5052128;28;20040;-80
2023/09/04 11:46:34;;;;;;;2.90;2.20;;;24.60;70.90;;;;;;5019648;28;20127;-79
2023/09/04 11:49:01;;;;;;;2.25;1.98;;;24.60;71.10;;;;;;5053050;28;20028;-79
2023/09/04 11:51:26;;;;;;;2.97;2.15;;;24.70;71.30;;;;;;5035419;28;20086;-79
2023/09/04 11:53:53;;;;;;;2.78;2.00;;;24.70;71.30;;;;;;5053546;28;20037;-78
2023/09/04 11:56:19;;;;;;;3.92;2.20;;;24.80;71.50;;;;;;5054030;28;20029;-78
2023/09/04 11:58:44;;;;;;;2.45;2.05;;;24.80;71.60;;;;;;5035409;28;20477;-79
2023/09/04 12:01:10;;;;;;;2.47;2.05;;;24.80;71.60;;;;;;5035579;28;20036;-79
2023/09/04 12:03:36;;;;;;;3.40;2.40;;;24.80;71.50;;;;;;5052057;28;20090;-79
2023/09/04 12:06:02;;;;;;;2.97;2.20;;;24.90;71.60;;;;;;5036139;28;20033;-79
2023/09/04 12:08:28;;;;;;;2.95;2.45;;;24.90;71.60;;;;;;5051659;28;20044;-79
2023/09/04 12:10:55;;;;;;;3.03;2.45;;;24.90;71.40;;;;;;5019646;28;20033;-78
2023/09/04 12:13:22;;;;;;;2.95;2.20;;;24.90;71.40;;;;;;5052130;28;20040;-78
2023/09/04 12:15:48;;;;;;;3.30;2.42;;;24.90;71.40;;;;;;5035386;28;20082;-78
2023/09/04 12:18:14;;;;;;;2.90;2.22;;;25.00;71.50;;;;;;5035309;28;20037;-79
2023/09/04 12:20:43;;;;;;;2.60;2.05;;;25.00;71.50;;;;;;5034928;28;20032;-79
2023/09/04 12:23:09;;;;;;;2.78;2.20;;;25.00;71.50;;;;;;5051772;28;20029;-79
2023/09/04 12:25:40;;;;;;;3.72;2.58;;;25.00;71.40;;;;;;5052481;28;20045;-78
2023/09/04 12:28:11;;;;;;;2.88;2.30;;;25.10;71.40;;;;;;5051866;28;20087;-79
2023/09/04 12:30:45;;;;;;;2.40;2.10;;;25.00;71.30;;;;;;5052731;28;20028;-79
2023/09/04 12:33:12;;;;;;;;;;;25.10;72.00;;;;;;5053108;28;20036;-79
2023/09/04 12:35:39;;;;;;;2.05;1.83;;;25.10;71.10;;;;;;5056530;28;19916;-79
2023/09/04 12:38:05;;;;;;;2.38;2.10;;;25.10;70.90;;;;;;5038858;28;20029;-78
2023/09/04 12:40:31;;;;;;;3.13;2.13;;;25.10;70.90;;;;;;5039280;28;20382;-78
2023/09/04 12:42:57;;;;;;;2.97;2.10;;;25.10;70.80;;;;;;5056160;28;20029;-79
2023/09/04 12:45:23;;;;;;;2.80;2.30;;;25.10;70.70;;;;;;5055574;28;20187;-79
2023/09/04 12:47:48;;;;;;;2.85;2.38;;;25.10;70.70;;;;;;5038580;28;20041;-78
2023/09/04 12:50:14;;;;;;;2.95;2.30;;;25.20;70.80;;;;;;5038291;28;20048;-78